EXP1238 RPLL-VVDN
Flight info
| Callsign | EXP1238 |
|---|---|
| Flight time | N/A |
| Altitude | 36000 |
| Route | SIRCA2R SIRCA L628 IBOBI/N0459F340 L628 ARESI/K0850F340 L628 PCA/K0835F390 W2 CQ CQ2K |
| Aircraft | A20N/M-SDE2E3FGHIRWXY/LB1 |
Departure
| Time | 2026-04-30 13:31 |
|---|---|
| Airport | Ninoy Aquino International Airport (RPLL) |
Arrival
| Time | N/A |
|---|---|
| Airport | Da Nang International Airport (VVDN) |
| Time | Latitude | Longitude | Altitude | Speed | Heading |
|---|---|---|---|---|---|
| 2026-04-30 12:46 | 14.50469 | 121.00417 | 84 ft | 0 kts | 120° |
| 2026-04-30 12:57 | 14.50477 | 121.00404 | 84 ft | 2 kts | 120° |
| 2026-04-30 12:57 | 14.50484 | 121.00391 | 84 ft | 2 kts | 120° |
| 2026-04-30 12:57 | 14.50492 | 121.00377 | 84 ft | 2 kts | 120° |
| 2026-04-30 12:57 | 14.50499 | 121.00364 | 84 ft | 2 kts | 120° |
| 2026-04-30 12:58 | 14.50507 | 121.00350 | 84 ft | 2 kts | 120° |
| 2026-04-30 12:58 | 14.50516 | 121.00339 | 84 ft | 2 kts | 154° |
| 2026-04-30 12:58 | 14.50531 | 121.00336 | 84 ft | 2 kts | 186° |
| 2026-04-30 12:58 | 14.50544 | 121.00340 | 84 ft | 2 kts | 217° |
| 2026-04-30 12:59 | 14.50551 | 121.00346 | 84 ft | 1 kts | 237° |
| 2026-04-30 12:59 | 14.50554 | 121.00351 | 84 ft | 0 kts | 234° |
| 2026-04-30 13:01 | 14.50549 | 121.00346 | 84 ft | 2 kts | 234° |
| 2026-04-30 13:02 | 14.50535 | 121.00325 | 84 ft | 4 kts | 231° |
| 2026-04-30 13:02 | 14.50510 | 121.00302 | 84 ft | 3 kts | 201° |
| 2026-04-30 13:02 | 14.50477 | 121.00296 | 84 ft | 6 kts | 185° |
| 2026-04-30 13:02 | 14.50427 | 121.00291 | 84 ft | 8 kts | 185° |
| 2026-04-30 13:03 | 14.50363 | 121.00285 | 84 ft | 10 kts | 184° |
| 2026-04-30 13:03 | 14.50282 | 121.00280 | 84 ft | 12 kts | 181° |
| 2026-04-30 13:03 | 14.50204 | 121.00310 | 84 ft | 12 kts | 149° |
| 2026-04-30 13:03 | 14.50131 | 121.00337 | 84 ft | 11 kts | 208° |
| 2026-04-30 13:04 | 14.50093 | 121.00281 | 84 ft | 10 kts | 241° |
| 2026-04-30 13:04 | 14.50055 | 121.00213 | 84 ft | 12 kts | 239° |
| 2026-04-30 13:04 | 14.50013 | 121.00137 | 84 ft | 11 kts | 240° |
| 2026-04-30 13:04 | 14.49981 | 121.00081 | 84 ft | 3 kts | 240° |
| 2026-04-30 13:05 | 14.49980 | 121.00079 | 84 ft | 0 kts | 240° |
| 2026-04-30 13:06 | 14.49979 | 121.00078 | 84 ft | 0 kts | 239° |
| 2026-04-30 13:06 | 14.49978 | 121.00075 | 84 ft | 1 kts | 239° |
| 2026-04-30 13:06 | 14.49961 | 121.00047 | 84 ft | 6 kts | 239° |
| 2026-04-30 13:06 | 14.49947 | 121.00021 | 84 ft | 0 kts | 240° |
| 2026-04-30 13:23 | 14.49942 | 121.00012 | 84 ft | 2 kts | 240° |
| 2026-04-30 13:23 | 14.49903 | 120.99960 | 84 ft | 5 kts | 203° |
| 2026-04-30 13:24 | 14.49880 | 120.99963 | 84 ft | 0 kts | 150° |
| 2026-04-30 13:28 | 14.49868 | 120.99970 | 84 ft | 2 kts | 149° |
| 2026-04-30 13:28 | 14.49844 | 120.99985 | 84 ft | 5 kts | 147° |
| 2026-04-30 13:29 | 14.49813 | 121.00062 | 84 ft | 5 kts | 70° |
| 2026-04-30 13:29 | 14.49821 | 121.00079 | 84 ft | 0 kts | 61° |
| 2026-04-30 13:30 | 14.49824 | 121.00085 | 84 ft | 2 kts | 61° |
| 2026-04-30 13:31 | 14.50270 | 121.00909 | 84 ft | 131 kts | 60° |
| 2026-04-30 13:31 | 14.51910 | 121.03781 | 1446 ft | 165 kts | 64° |
| 2026-04-30 13:32 | 14.52830 | 121.05492 | 2278 ft | 180 kts | 63° |
| 2026-04-30 13:32 | 14.54143 | 121.07958 | 3123 ft | 214 kts | 63° |
| 2026-04-30 13:33 | 14.55682 | 121.10894 | 3940 ft | 255 kts | 63° |
| 2026-04-30 13:33 | 14.57731 | 121.13973 | 5317 ft | 276 kts | 36° |
| 2026-04-30 13:34 | 14.59465 | 121.14752 | 6101 ft | 279 kts | 6° |
| 2026-04-30 13:34 | 14.64826 | 121.12866 | 8593 ft | 279 kts | 327° |
| 2026-04-30 13:35 | 14.66480 | 121.11888 | 9460 ft | 279 kts | 327° |
| 2026-04-30 13:35 | 14.69825 | 121.09878 | 11122 ft | 279 kts | 327° |
| 2026-04-30 13:36 | 14.73143 | 121.07827 | 12679 ft | 282 kts | 327° |
| 2026-04-30 13:36 | 14.74820 | 121.06767 | 13412 ft | 285 kts | 327° |
| 2026-04-30 13:36 | 14.78203 | 121.04592 | 14829 ft | 291 kts | 327° |
| 2026-04-30 13:37 | 14.79914 | 121.03476 | 15518 ft | 295 kts | 327° |
| 2026-04-30 13:37 | 14.83264 | 121.01035 | 16814 ft | 303 kts | 311° |
| 2026-04-30 13:38 | 14.84491 | 120.96731 | 17395 ft | 341 kts | 261° |
| 2026-04-30 13:38 | 14.83606 | 120.94407 | 17672 ft | 359 kts | 240° |
| 2026-04-30 13:38 | 14.80800 | 120.89919 | 18353 ft | 384 kts | 238° |
| 2026-04-30 13:39 | 14.77876 | 120.85252 | 19548 ft | 391 kts | 239° |
| 2026-04-30 13:39 | 14.74930 | 120.80476 | 20684 ft | 399 kts | 239° |
| 2026-04-30 13:40 | 14.73434 | 120.78043 | 21244 ft | 403 kts | 239° |
| 2026-04-30 13:40 | 14.71948 | 120.75626 | 21789 ft | 406 kts | 239° |
| 2026-04-30 13:40 | 14.70419 | 120.73135 | 22332 ft | 410 kts | 239° |
| 2026-04-30 13:40 | 14.68895 | 120.70651 | 22864 ft | 414 kts | 238° |
| 2026-04-30 13:41 | 14.67351 | 120.68134 | 23389 ft | 417 kts | 238° |
| 2026-04-30 13:41 | 14.65802 | 120.65609 | 23897 ft | 420 kts | 238° |
| 2026-04-30 13:41 | 14.64239 | 120.63060 | 24396 ft | 424 kts | 238° |
| 2026-04-30 13:41 | 14.62656 | 120.60480 | 24883 ft | 427 kts | 238° |
| 2026-04-30 13:42 | 14.61085 | 120.57918 | 25354 ft | 430 kts | 238° |
| 2026-04-30 13:42 | 14.59472 | 120.55292 | 25815 ft | 433 kts | 238° |
| 2026-04-30 13:42 | 14.56246 | 120.50034 | 26691 ft | 439 kts | 238° |
| 2026-04-30 13:43 | 14.54601 | 120.47352 | 27117 ft | 441 kts | 238° |
| 2026-04-30 13:43 | 14.52960 | 120.44678 | 27524 ft | 444 kts | 238° |
| 2026-04-30 13:43 | 14.51305 | 120.41984 | 27911 ft | 447 kts | 238° |
| 2026-04-30 13:43 | 14.49663 | 120.39314 | 28288 ft | 449 kts | 238° |
| 2026-04-30 13:44 | 14.48075 | 120.36526 | 28748 ft | 448 kts | 244° |
| 2026-04-30 13:44 | 14.46846 | 120.33599 | 29253 ft | 446 kts | 251° |
| 2026-04-30 13:44 | 14.46004 | 120.30543 | 29726 ft | 444 kts | 258° |
| 2026-04-30 13:44 | 14.45552 | 120.27409 | 30158 ft | 442 kts | 265° |
| 2026-04-30 13:45 | 14.45121 | 120.21138 | 30982 ft | 440 kts | 267° |
| 2026-04-30 13:45 | 14.44926 | 120.18001 | 31363 ft | 440 kts | 266° |
| 2026-04-30 13:45 | 14.44719 | 120.14836 | 31742 ft | 439 kts | 266° |
| 2026-04-30 13:46 | 14.44507 | 120.11717 | 32117 ft | 438 kts | 266° |
| 2026-04-30 13:46 | 14.44290 | 120.08617 | 32486 ft | 437 kts | 266° |
| 2026-04-30 13:46 | 14.44069 | 120.05477 | 32843 ft | 436 kts | 266° |
| 2026-04-30 13:46 | 14.43849 | 120.02383 | 33190 ft | 436 kts | 266° |
| 2026-04-30 13:47 | 14.43629 | 119.99293 | 33534 ft | 435 kts | 266° |
| 2026-04-30 13:47 | 14.43404 | 119.96159 | 33851 ft | 434 kts | 266° |
| 2026-04-30 13:47 | 14.43181 | 119.93065 | 33933 ft | 434 kts | 266° |
| 2026-04-30 13:48 | 14.42736 | 119.86906 | 33943 ft | 434 kts | 266° |
| 2026-04-30 13:48 | 14.42286 | 119.80685 | 33946 ft | 433 kts | 266° |
| 2026-04-30 13:49 | 14.41834 | 119.74506 | 33947 ft | 433 kts | 266° |
| 2026-04-30 13:49 | 14.41383 | 119.68347 | 33946 ft | 434 kts | 266° |
| 2026-04-30 13:50 | 14.40931 | 119.62155 | 33947 ft | 434 kts | 266° |
| 2026-04-30 13:50 | 14.40253 | 119.52887 | 33947 ft | 434 kts | 266° |
| 2026-04-30 13:51 | 14.39790 | 119.46665 | 33947 ft | 433 kts | 266° |
| 2026-04-30 13:51 | 14.39328 | 119.40510 | 33947 ft | 433 kts | 266° |
| 2026-04-30 13:52 | 14.38863 | 119.34274 | 33948 ft | 440 kts | 266° |
| 2026-04-30 13:52 | 14.38392 | 119.27908 | 33951 ft | 453 kts | 265° |
| 2026-04-30 13:53 | 14.37908 | 119.21436 | 33947 ft | 456 kts | 265° |
| 2026-04-30 13:53 | 14.37418 | 119.14922 | 33947 ft | 457 kts | 265° |
| 2026-04-30 13:54 | 14.36927 | 119.08408 | 33947 ft | 457 kts | 265° |
| 2026-04-30 13:54 | 14.36433 | 119.01898 | 33947 ft | 457 kts | 266° |
| 2026-04-30 13:55 | 14.35935 | 118.95393 | 33948 ft | 456 kts | 266° |
| 2026-04-30 13:55 | 14.35439 | 118.88906 | 33949 ft | 453 kts | 266° |
| 2026-04-30 13:56 | 14.34947 | 118.82461 | 33949 ft | 448 kts | 267° |
| 2026-04-30 13:56 | 14.34460 | 118.76087 | 33948 ft | 444 kts | 266° |
| 2026-04-30 13:57 | 14.33972 | 118.69747 | 33947 ft | 444 kts | 266° |
| 2026-04-30 13:57 | 14.33483 | 118.63422 | 33947 ft | 444 kts | 266° |
| 2026-04-30 13:58 | 14.32745 | 118.53913 | 33947 ft | 444 kts | 266° |
| 2026-04-30 13:59 | 14.32253 | 118.47591 | 33947 ft | 444 kts | 266° |
| 2026-04-30 13:59 | 14.31762 | 118.41297 | 33947 ft | 444 kts | 266° |
| 2026-04-30 14:00 | 14.31264 | 118.34947 | 33947 ft | 444 kts | 266° |
| 2026-04-30 14:00 | 14.30512 | 118.25472 | 33947 ft | 444 kts | 266° |
| 2026-04-30 14:01 | 14.30006 | 118.19122 | 33947 ft | 444 kts | 266° |
| 2026-04-30 14:01 | 14.29504 | 118.12812 | 33947 ft | 444 kts | 266° |
| 2026-04-30 14:02 | 14.28996 | 118.06450 | 33947 ft | 444 kts | 266° |
| 2026-04-30 14:02 | 14.28490 | 118.00137 | 33947 ft | 444 kts | 266° |
| 2026-04-30 14:03 | 14.27983 | 117.93827 | 33947 ft | 444 kts | 266° |
| 2026-04-30 14:03 | 14.27471 | 117.87480 | 33947 ft | 444 kts | 266° |
| 2026-04-30 14:04 | 14.26961 | 117.81177 | 33947 ft | 444 kts | 266° |
| 2026-04-30 14:04 | 14.26445 | 117.74824 | 33947 ft | 444 kts | 266° |
| 2026-04-30 14:05 | 14.25929 | 117.68492 | 33947 ft | 444 kts | 266° |
| 2026-04-30 14:05 | 14.25413 | 117.62174 | 33947 ft | 444 kts | 266° |
| 2026-04-30 14:06 | 14.24636 | 117.52694 | 33947 ft | 444 kts | 266° |
| 2026-04-30 14:07 | 14.23851 | 117.43176 | 33947 ft | 444 kts | 266° |
| 2026-04-30 14:08 | 14.23070 | 117.33734 | 33947 ft | 444 kts | 266° |
| 2026-04-30 14:08 | 14.22280 | 117.24218 | 33947 ft | 444 kts | 266° |
| 2026-04-30 14:09 | 14.21752 | 117.17900 | 33947 ft | 444 kts | 266° |
| 2026-04-30 14:10 | 14.20959 | 117.08440 | 33946 ft | 444 kts | 266° |
| 2026-04-30 14:10 | 14.20421 | 117.02055 | 33945 ft | 447 kts | 266° |
| 2026-04-30 14:11 | 14.19886 | 116.95694 | 33945 ft | 450 kts | 266° |
| 2026-04-30 14:11 | 14.19342 | 116.89275 | 33945 ft | 453 kts | 266° |
| 2026-04-30 14:12 | 14.18787 | 116.82793 | 33947 ft | 455 kts | 266° |
| 2026-04-30 14:12 | 14.18229 | 116.76286 | 33947 ft | 455 kts | 266° |
| 2026-04-30 14:13 | 14.17678 | 116.69853 | 33947 ft | 455 kts | 266° |
| 2026-04-30 14:13 | 14.17120 | 116.63364 | 33947 ft | 455 kts | 266° |
| 2026-04-30 14:14 | 14.16559 | 116.56870 | 33947 ft | 455 kts | 266° |
| 2026-04-30 14:14 | 14.15999 | 116.50399 | 33947 ft | 455 kts | 266° |
| 2026-04-30 14:15 | 14.15435 | 116.43906 | 33947 ft | 455 kts | 266° |
| 2026-04-30 14:15 | 14.14869 | 116.37407 | 33947 ft | 455 kts | 266° |
| 2026-04-30 14:16 | 14.14305 | 116.30940 | 33947 ft | 455 kts | 266° |
| 2026-04-30 14:16 | 14.13742 | 116.24491 | 33947 ft | 455 kts | 266° |
| 2026-04-30 14:17 | 14.13172 | 116.17992 | 33947 ft | 455 kts | 266° |
| 2026-04-30 14:17 | 14.12601 | 116.11517 | 33947 ft | 455 kts | 266° |
| 2026-04-30 14:18 | 14.12027 | 116.05026 | 33947 ft | 455 kts | 266° |
| 2026-04-30 14:18 | 14.11164 | 115.95293 | 33947 ft | 455 kts | 266° |
| 2026-04-30 14:19 | 14.10298 | 115.85574 | 33947 ft | 455 kts | 266° |
| 2026-04-30 14:20 | 14.09719 | 115.79105 | 33947 ft | 455 kts | 266° |
| 2026-04-30 14:20 | 14.08848 | 115.69408 | 33947 ft | 455 kts | 266° |
| 2026-04-30 14:21 | 14.08263 | 115.62921 | 33947 ft | 455 kts | 266° |
| 2026-04-30 14:22 | 14.07385 | 115.53210 | 33947 ft | 455 kts | 266° |
| 2026-04-30 14:22 | 14.06500 | 115.43465 | 33947 ft | 455 kts | 266° |
| 2026-04-30 14:23 | 14.05318 | 115.30511 | 33947 ft | 455 kts | 266° |
| 2026-04-30 14:24 | 14.04430 | 115.20819 | 33947 ft | 455 kts | 266° |
| 2026-04-30 14:25 | 14.03235 | 115.07820 | 33946 ft | 459 kts | 265° |
| 2026-04-30 14:26 | 14.02327 | 114.98026 | 33947 ft | 460 kts | 264° |
| 2026-04-30 14:27 | 14.01415 | 114.88223 | 33947 ft | 459 kts | 264° |
| 2026-04-30 14:27 | 14.00800 | 114.81683 | 33947 ft | 459 kts | 264° |
| 2026-04-30 14:28 | 13.99876 | 114.71915 | 33947 ft | 459 kts | 264° |
| 2026-04-30 14:28 | 13.99260 | 114.65379 | 33947 ft | 459 kts | 264° |
| 2026-04-30 14:29 | 13.98131 | 114.53433 | 33947 ft | 459 kts | 264° |
| 2026-04-30 14:31 | 13.97379 | 114.36004 | 33947 ft | 459 kts | 270° |
| 2026-04-30 14:31 | 13.97462 | 114.26131 | 33947 ft | 459 kts | 270° |
| 2026-04-30 14:32 | 13.97531 | 114.16291 | 33947 ft | 459 kts | 270° |
| 2026-04-30 14:33 | 13.97572 | 114.09763 | 33947 ft | 459 kts | 270° |
| 2026-04-30 14:33 | 13.97631 | 113.99921 | 33947 ft | 459 kts | 270° |
| 2026-04-30 14:34 | 13.97668 | 113.93364 | 33947 ft | 459 kts | 270° |
| 2026-04-30 14:34 | 13.97704 | 113.86799 | 33947 ft | 459 kts | 270° |
| 2026-04-30 14:35 | 13.97753 | 113.76962 | 33947 ft | 459 kts | 270° |
| 2026-04-30 14:36 | 13.97784 | 113.70406 | 33947 ft | 459 kts | 270° |
| 2026-04-30 14:36 | 13.97814 | 113.63864 | 33947 ft | 459 kts | 270° |
| 2026-04-30 14:37 | 13.97841 | 113.57297 | 33947 ft | 459 kts | 270° |
| 2026-04-30 14:37 | 13.97867 | 113.50760 | 33947 ft | 459 kts | 270° |
| 2026-04-30 14:38 | 13.97891 | 113.44182 | 33956 ft | 459 kts | 270° |
| 2026-04-30 14:38 | 13.97913 | 113.37622 | 33965 ft | 459 kts | 270° |
| 2026-04-30 14:39 | 13.97938 | 113.31058 | 33969 ft | 459 kts | 270° |
| 2026-04-30 14:39 | 13.97956 | 113.24529 | 33971 ft | 459 kts | 270° |
| 2026-04-30 14:40 | 13.97977 | 113.14704 | 33972 ft | 459 kts | 270° |
| 2026-04-30 14:40 | 13.97991 | 113.08129 | 33972 ft | 459 kts | 270° |
| 2026-04-30 14:41 | 13.98003 | 113.01573 | 33971 ft | 459 kts | 270° |
| 2026-04-30 14:41 | 13.98014 | 112.95030 | 33971 ft | 460 kts | 270° |
| 2026-04-30 14:42 | 13.98024 | 112.88462 | 33971 ft | 462 kts | 270° |
| 2026-04-30 14:42 | 13.98032 | 112.81874 | 33971 ft | 463 kts | 270° |
| 2026-04-30 14:43 | 13.98039 | 112.75238 | 33972 ft | 464 kts | 270° |
| 2026-04-30 14:43 | 13.98044 | 112.68611 | 33972 ft | 464 kts | 270° |
| 2026-04-30 14:44 | 13.98047 | 112.61950 | 33972 ft | 464 kts | 270° |
| 2026-04-30 14:44 | 13.98048 | 112.55313 | 33972 ft | 464 kts | 270° |
| 2026-04-30 14:45 | 13.98048 | 112.48683 | 33972 ft | 464 kts | 270° |
| 2026-04-30 14:45 | 13.98045 | 112.42071 | 33972 ft | 464 kts | 270° |
| 2026-04-30 14:46 | 13.98041 | 112.35431 | 33972 ft | 464 kts | 270° |
| 2026-04-30 14:46 | 13.98035 | 112.28780 | 33971 ft | 464 kts | 270° |
| 2026-04-30 14:47 | 13.98027 | 112.22170 | 33972 ft | 464 kts | 270° |
| 2026-04-30 14:47 | 13.98017 | 112.15515 | 33972 ft | 464 kts | 270° |
| 2026-04-30 14:48 | 13.98006 | 112.08893 | 33972 ft | 464 kts | 270° |
| 2026-04-30 14:48 | 13.97992 | 112.02254 | 33972 ft | 464 kts | 270° |
| 2026-04-30 14:49 | 13.97977 | 111.95646 | 33972 ft | 464 kts | 270° |
| 2026-04-30 14:49 | 13.97961 | 111.88989 | 33972 ft | 464 kts | 270° |
| 2026-04-30 14:50 | 13.97933 | 111.79069 | 33972 ft | 464 kts | 270° |
| 2026-04-30 14:51 | 13.97900 | 111.69116 | 33972 ft | 464 kts | 270° |
| 2026-04-30 14:52 | 13.97864 | 111.59134 | 33972 ft | 464 kts | 270° |
| 2026-04-30 14:52 | 13.97823 | 111.49220 | 33972 ft | 464 kts | 270° |
| 2026-04-30 14:53 | 13.97773 | 111.39255 | 33972 ft | 464 kts | 270° |
| 2026-04-30 14:54 | 13.97701 | 111.26028 | 33972 ft | 464 kts | 269° |
| 2026-04-30 14:55 | 13.97642 | 111.16058 | 33972 ft | 465 kts | 269° |
| 2026-04-30 14:56 | 13.97564 | 111.02799 | 33971 ft | 465 kts | 270° |
| 2026-04-30 14:57 | 13.97498 | 110.92778 | 33971 ft | 468 kts | 270° |
| 2026-04-30 14:58 | 13.97400 | 110.79422 | 33971 ft | 469 kts | 270° |
| 2026-04-30 14:58 | 13.97322 | 110.69344 | 33971 ft | 469 kts | 270° |
| 2026-04-30 15:00 | 13.97183 | 110.52604 | 33972 ft | 469 kts | 270° |
| 2026-04-30 15:01 | 13.97063 | 110.39220 | 33972 ft | 469 kts | 270° |
| 2026-04-30 15:01 | 13.96969 | 110.29218 | 33972 ft | 469 kts | 269° |
| 2026-04-30 15:02 | 13.96899 | 110.22498 | 33971 ft | 469 kts | 269° |
| 2026-04-30 15:03 | 13.96723 | 110.05753 | 33971 ft | 469 kts | 269° |
| 2026-04-30 15:04 | 13.96570 | 109.89043 | 33972 ft | 469 kts | 270° |
| 2026-04-30 15:06 | 13.96430 | 109.72269 | 33972 ft | 469 kts | 270° |
| 2026-04-30 15:07 | 13.96310 | 109.58896 | 33971 ft | 469 kts | 270° |
| 2026-04-30 15:08 | 13.96178 | 109.45501 | 33972 ft | 469 kts | 269° |
| 2026-04-30 15:09 | 13.96005 | 109.28964 | 33970 ft | 469 kts | 269° |
| 2026-04-30 15:10 | 13.95908 | 109.15605 | 33964 ft | 469 kts | 274° |
| 2026-04-30 15:11 | 14.01834 | 109.04134 | 33965 ft | 466 kts | 326° |
| 2026-04-30 15:11 | 14.07570 | 109.01345 | 33973 ft | 458 kts | 349° |
| 2026-04-30 15:13 | 14.23054 | 108.97885 | 33990 ft | 459 kts | 351° |
| 2026-04-30 15:14 | 14.35321 | 108.95074 | 31497 ft | 466 kts | 350° |
| 2026-04-30 15:14 | 14.44895 | 108.92863 | 28684 ft | 477 kts | 349° |
| 2026-04-30 15:16 | 14.61188 | 108.89088 | 24819 ft | 489 kts | 348° |
| 2026-04-30 15:17 | 14.74485 | 108.85999 | 22599 ft | 494 kts | 348° |
| 2026-04-30 15:18 | 14.91078 | 108.82147 | 19801 ft | 483 kts | 348° |
| 2026-04-30 15:19 | 15.00773 | 108.79874 | 18095 ft | 470 kts | 350° |